Weather History for Newport, VT

Change the Weather History Date:

Tuesday, April 2, 2013

  Actual Average Record
Temperature  
Mean Temperature 22 °F -  
Max Temperature 25 °F 46 °F 69 °F (1986)
Min Temperature 19 °F 27 °F 4 °F (1964)
Degree Days  
Heating Degree Days 43    
Moisture  
Dew Point 14 °F    
Average Humidity 68    
Maximum Humidity 85    
Minimum Humidity 47    
Precipitation  
Precipitation 0.00 in - - ()
Sea Level Pressure  
Sea Level Pressure 29.75 in    
Wind  
Wind Speed 12 mph (WSW)    
Max Wind Speed 21 mph    
Max Gust Speed 30 mph    
Visibility 5 miles    
Events Snow    
Averages and records for this station are not official NWS values.
T = Trace of Precipitation, MM = Missing Value Source: NWS Daily Summary

Daily Weather History Graph

Daily Weather History Graph

Search for Another Location

Airport:

Trip Planner

Search our weather history database for the weather conditions in past years. The results will help you decide how hot, cold, wet, or windy it might be!

Date:

Astronomy

Apr. 02, 2013 Rise Set
Actual Time 6:27 AM EDT 7:18 PM EDT
Civil Twilight 5:57 AM EDT 7:47 PM EDT
Nautical Twilight 5:22 AM EDT 8:23 PM EDT
Astronomical Twilight 4:45 AM EDT 9:00 PM EDT
Moon 1:30 AM EDT (4/2) 11:04 AM EDT (4/2)
Length of Visible Light 13h 50m
Length of Day
12h 50m
Waning Gibbous, 56% of the Moon is Illuminated
Apr 2
Waning Gibbous
Apr 3
Last Quarter
Apr 10
New
Apr 18
First Quarter
Apr 25
Full

Hourly Weather History & Observations

Time (EDT) Temp. Windchill Dew Point Humidity Pressure Visibility Wind Dir Wind Speed Gust Speed Precip Events Conditions
12:15 AM 24.3 °F 10.4 °F 16.3 °F 72% 29.72 in 4.0 mi West 18.4 mph 26.5 mph N/A Snow Light Snow
12:35 AM 23.9 °F 13.5 °F 13.1 °F 63% 29.72 in 10.0 mi WNW 10.4 mph - N/A   Overcast
12:55 AM 24.1 °F 15.2 °F 10.8 °F 57% 29.73 in 10.0 mi West 8.1 mph - N/A   Mostly Cloudy
1:15 AM 23.7 °F 11.5 °F 7.7 °F 51% 29.73 in 10.0 mi WNW 13.8 mph 24.2 mph N/A   Scattered Clouds
1:35 AM 23.4 °F 9.2 °F 6.4 °F 48% 29.73 in 10.0 mi West 18.4 mph 24.2 mph N/A   Scattered Clouds
1:55 AM 23.0 °F 10.6 °F 5.5 °F 47% 29.73 in 10.0 mi West 13.8 mph 26.5 mph N/A   Clear
2:15 AM 22.6 °F 11.9 °F 6.1 °F 49% 29.73 in 10.0 mi West 10.4 mph 20.7 mph N/A   Clear
2:35 AM 22.6 °F 11.9 °F 6.6 °F 50% 29.73 in 10.0 mi West 10.4 mph 23.0 mph N/A   Scattered Clouds
2:55 AM 22.1 °F 9.5 °F 7.7 °F 54% 29.73 in 10.0 mi West 13.8 mph 25.3 mph N/A   Mostly Cloudy
3:15 AM 21.4 °F 8.0 °F 8.6 °F 58% 29.73 in 10.0 mi West 15.0 mph 21.9 mph N/A   Mostly Cloudy
3:35 AM 21.2 °F 10.1 °F 10.9 °F 65% 29.73 in 10.0 mi West 10.4 mph - N/A   Overcast
3:55 AM 20.7 °F 10.2 °F 12.6 °F 71% 29.73 in 5.0 mi West 9.2 mph 16.1 mph N/A Snow Light Snow
4:15 AM 20.7 °F 9.5 °F 11.8 °F 69% 29.73 in 10.0 mi WNW 10.4 mph 16.1 mph N/A   Overcast
4:35 AM 20.3 °F 13.8 °F 11.1 °F 68% 29.73 in 10.0 mi West 4.6 mph - N/A   Overcast
4:55 AM 20.3 °F - 11.5 °F 69% 29.73 in 10.0 mi Calm Calm - N/A Snow Light Snow
5:15 AM 19.9 °F - 11.3 °F 69% 29.74 in 10.0 mi Calm Calm - N/A   Overcast
5:35 AM 20.3 °F 10.6 °F 10.4 °F 66% 29.73 in 10.0 mi WNW 8.1 mph - N/A   Overcast
5:55 AM 20.3 °F 15.4 °F 11.3 °F 68% 29.74 in 10.0 mi West 3.5 mph - N/A   Overcast
6:15 AM 19.6 °F - 13.1 °F 76% 29.74 in 2.0 mi Calm Calm - N/A Snow Light Snow
6:35 AM 19.4 °F 11.5 °F 14.5 °F 81% 29.75 in 1.8 mi West 5.8 mph - N/A Snow Light Snow
6:55 AM 19.4 °F 14.3 °F 15.3 °F 84% 29.75 in 0.8 mi West 3.5 mph - N/A Snow Light Snow
7:15 AM 19.4 °F 14.3 °F 15.6 °F 85% 29.75 in 0.8 mi SSW 3.5 mph - N/A Snow Light Snow
7:35 AM 19.9 °F 10.1 °F 14.4 °F 79% 29.75 in 2.5 mi West 8.1 mph - N/A Snow Light Snow
7:55 AM 20.3 °F 9.0 °F 10.8 °F 67% 29.75 in 10.0 mi West 10.4 mph 17.3 mph N/A   Overcast
8:15 AM 20.7 °F 7.1 °F 10.9 °F 66% 29.76 in 10.0 mi WSW 15.0 mph 23.0 mph N/A   Overcast
8:35 AM 20.8 °F 6.8 °F 9.1 °F 61% 29.76 in 10.0 mi West 16.1 mph 26.5 mph N/A   Overcast
8:55 AM 21.2 °F 7.8 °F 8.2 °F 57% 29.76 in 10.0 mi West 15.0 mph 26.5 mph N/A   Overcast
9:15 AM 21.6 °F 9.3 °F 8.4 °F 57% 29.76 in 10.0 mi West 12.7 mph 24.2 mph N/A   Overcast
9:35 AM 21.6 °F 8.8 °F 8.4 °F 57% 29.76 in 7.0 mi West 13.8 mph 24.2 mph N/A   Overcast
9:55 AM 21.7 °F 9.6 °F 9.5 °F 59% 29.76 in 7.0 mi WSW 12.7 mph 18.4 mph N/A   Overcast
10:35 AM 21.4 °F 9.1 °F 12.6 °F 69% 29.76 in 1.8 mi West 12.7 mph 18.4 mph N/A Snow Light Snow
10:55 AM 22.1 °F 11.3 °F 13.8 °F 70% 29.76 in 3.0 mi West 10.4 mph 17.3 mph N/A Snow Light Snow
11:15 AM 22.6 °F 11.9 °F 14.0 °F 69% 29.75 in 2.5 mi WSW 10.4 mph 17.3 mph N/A Snow Light Snow
11:35 AM 22.1 °F 10.0 °F 13.8 °F 70% 29.75 in 2.5 mi West 12.7 mph 17.3 mph N/A Snow Light Snow
11:55 AM 23.5 °F 11.3 °F 13.1 °F 64% 29.75 in 5.0 mi WSW 13.8 mph 25.3 mph N/A Snow Light Snow
12:15 PM 23.4 °F 10.1 °F 14.2 °F 68% 29.74 in 2.5 mi WSW 16.1 mph 20.7 mph N/A Snow Light Snow
12:35 PM 23.7 °F 11.0 °F 14.9 °F 69% 29.74 in 1.2 mi West 15.0 mph 25.3 mph N/A Snow Light Snow
12:55 PM 23.2 °F 12.0 °F 16.7 °F 76% 29.74 in 1.0 mi WSW 11.5 mph 16.1 mph N/A Snow Light Snow
1:15 PM 24.8 °F 13.4 °F 14.0 °F 64% 29.73 in 10.0 mi WSW 12.7 mph 24.2 mph N/A   Overcast
1:35 PM 23.5 °F 10.3 °F 16.5 °F 75% 29.73 in 0.8 mi WSW 16.1 mph 26.5 mph N/A Snow Light Snow
1:55 PM 24.6 °F 13.2 °F 16.2 °F 70% 29.73 in 2.0 mi WSW 12.7 mph 23.0 mph N/A Snow Light Snow
2:15 PM 23.9 °F 11.2 °F 16.3 °F 73% 29.73 in 1.5 mi WSW 15.0 mph 23.0 mph N/A Snow Light Snow
2:35 PM 23.5 °F 9.0 °F 15.8 °F 72% 29.73 in 1.2 mi West 19.6 mph 27.6 mph N/A Snow Light Snow
2:55 PM 23.9 °F 11.7 °F 15.1 °F 69% 29.73 in 7.0 mi West 13.8 mph 23.0 mph N/A   Overcast
3:15 PM 23.9 °F 13.5 °F 15.3 °F 70% 29.73 in 2.0 mi WSW 10.4 mph 23.0 mph N/A Snow Light Snow
3:35 PM 24.4 °F 11.9 °F 14.9 °F 67% 29.73 in 4.0 mi WSW 15.0 mph 20.7 mph N/A Snow Light Snow
3:55 PM 23.7 °F 12.6 °F 15.8 °F 72% 29.72 in 3.0 mi WSW 11.5 mph 20.7 mph N/A Snow Light Snow
4:15 PM 24.1 °F 12.5 °F 16.0 °F 71% 29.73 in 1.8 mi WSW 12.7 mph 23.0 mph N/A Snow Light Snow
4:35 PM 23.5 °F 12.4 °F 16.7 °F 75% 29.73 in 1.2 mi WSW 11.5 mph 16.1 mph N/A Snow Light Snow
4:55 PM 24.3 °F 13.9 °F 15.3 °F 69% 29.73 in 3.0 mi WSW 10.4 mph 18.4 mph N/A Snow Light Snow
5:15 PM 25.5 °F 11.3 °F 12.6 °F 58% 29.73 in 10.0 mi WSW 20.7 mph 29.9 mph N/A   Overcast
5:35 PM 25.3 °F 11.8 °F 12.6 °F 58% 29.74 in 7.0 mi WSW 18.4 mph 24.2 mph N/A Snow Light Snow
5:55 PM 24.8 °F 13.4 °F 12.9 °F 61% 29.74 in 4.0 mi West 12.7 mph 26.5 mph N/A Snow Light Snow
6:15 PM 25.2 °F 11.6 °F 12.2 °F 58% 29.75 in 10.0 mi West 18.4 mph 28.8 mph N/A   Overcast
6:35 PM 25.5 °F 15.5 °F 12.0 °F 57% 29.75 in 10.0 mi WSW 10.4 mph 18.4 mph N/A   Overcast
6:55 PM 25.3 °F 14.7 °F 13.8 °F 62% 29.75 in 7.0 mi WSW 11.5 mph 25.3 mph N/A Snow Light Snow
7:15 PM 23.9 °F 13.5 °F 17.1 °F 75% 29.75 in 2.5 mi WSW 10.4 mph - N/A Snow Light Snow
7:35 PM 23.7 °F 13.3 °F 18.0 °F 79% 29.75 in 1.8 mi WSW 10.4 mph 18.4 mph N/A Snow Light Snow
7:55 PM 23.9 °F 15.0 °F 18.7 °F 80% 29.76 in 1.8 mi West 8.1 mph - N/A Snow Light Snow
8:15 PM 23.9 °F 13.5 °F 18.5 °F 80% 29.77 in 1.8 mi West 10.4 mph 16.1 mph N/A Snow Light Snow
8:35 PM 23.9 °F 15.8 °F 19.4 °F 83% 29.77 in 1.5 mi WSW 6.9 mph - N/A Snow Light Snow
8:55 PM 23.7 °F 17.8 °F 19.8 °F 85% 29.78 in 1.0 mi WSW 4.6 mph - N/A Snow Light Snow
9:15 PM 23.9 °F 15.8 °F 19.4 °F 83% 29.79 in 1.8 mi West 6.9 mph - N/A Snow Light Snow
9:35 PM 23.7 °F 13.3 °F 19.4 °F 84% 29.80 in 1.2 mi West 10.4 mph - N/A Snow Snow
9:55 PM 23.5 °F 14.5 °F 18.9 °F 82% 29.80 in 2.0 mi West 8.1 mph - N/A Snow Light Snow
10:15 PM 23.5 °F 11.8 °F 17.1 °F 76% 29.80 in 2.5 mi West 12.7 mph 20.7 mph N/A Snow Light Snow
10:35 PM 23.4 °F 13.5 °F 16.9 °F 76% 29.81 in 2.5 mi WSW 9.2 mph 20.7 mph N/A Snow Light Snow
10:55 PM 23.0 °F 17.0 °F 17.4 °F 79% 29.81 in 1.8 mi SW 4.6 mph - N/A Snow Light Snow
11:15 PM 23.0 °F 14.7 °F 17.6 °F 80% 29.81 in 2.0 mi West 6.9 mph - N/A Snow Light Snow
11:35 PM 23.9 °F 15.8 °F 16.3 °F 73% 29.82 in 5.0 mi SW 6.9 mph - N/A Snow Light Snow